Time;durP1;ratioP1;P1;durP2;ratioP2;P2;SDS_P1;SDS_P2;PMS_P1;PMS_P2;Temp;Humidity;BMP_temperature;BMP_pressure;BME280_temperature;BME280_humidity;BME280_pressure;Samples;Min_cycle;Max_cycle;Signal;HPM_P1;HPM_P2
2022/11/04 00:01:17;;;;;;;10.43;8.38;;;;;;;;;;6249592;22;20015;-78
2022/11/04 00:03:43;;;;;;;13.15;10.30;;;;;;;;;;6249216;22;20011;-77
2022/11/04 00:06:09;;;;;;;11.90;9.20;;;;;;;;;;6301999;22;20019;-79
2022/11/04 00:08:34;;;;;;;17.88;12.18;;;;;;;;;;6274791;22;20014;-79
2022/11/04 00:13:45;;;;;;;8.35;7.43;;;;;;;;;;6301702;22;20014;-78
2022/11/04 00:18:55;;;;;;;8.48;7.38;;;;;;;;;;6274040;22;20019;-79
2022/11/04 00:29:35;;;;;;;18.42;8.73;;;;;;;;;;6301705;22;20011;-77
2022/11/04 00:35:02;;;;;;;10.85;9.52;;;;;;;;;;6208435;23;20016;-77
2022/11/04 00:37:28;;;;;;;14.02;9.88;;;;;;;;;;6257564;22;20321;-78
2022/11/04 00:39:54;;;;;;;10.18;8.63;;;;;;;;;;6276156;22;20018;-77
2022/11/04 00:42:20;;;;;;;8.93;8.02;;;;;;;;;;6276659;22;20012;-77
2022/11/04 00:44:46;;;;;;;11.30;9.48;;;;;;;;;;6303509;22;20065;-78
2022/11/04 00:47:11;;;;;;;12.02;10.00;;;;;;;;;;6276243;22;20419;-77
2022/11/04 00:49:38;;;;;;;15.23;11.18;;;;;;;;;;6303584;22;20019;-78
2022/11/04 00:52:04;;;;;;;9.82;8.75;;;;;;;;;;6276259;22;20011;-78
2022/11/04 00:54:29;;;;;;;11.70;9.38;;;;;;;;;;6250451;22;20018;-78
2022/11/04 00:56:56;;;;;;;12.65;7.80;;;;;;;;;;6303288;22;20015;-78
2022/11/04 00:59:21;;;;;;;9.13;8.15;;;;;;;;;;6302986;22;20026;-78
2022/11/04 01:01:47;;;;;;;10.93;8.95;;;;;;;;;;6276162;22;20022;-77
2022/11/04 01:04:13;;;;;;;9.55;8.65;;;;;;;;;;6303567;22;20011;-79
2022/11/04 01:06:39;;;;;;;11.10;8.70;;;;;;;;;;6276102;22;20023;-78
2022/11/04 01:09:07;;;;;;;14.18;8.60;;;;;;;;;;6275982;22;20435;-78
2022/11/04 01:11:32;;;;;;;11.63;8.93;;;;;;;;;;6303563;22;20102;-79
2022/11/04 01:13:58;;;;;;;8.80;8.00;;;;;;;;;;6250536;22;20042;-80
2022/11/04 01:16:24;;;;;;;9.85;8.20;;;;;;;;;;6303324;22;20352;-79
2022/11/04 01:18:50;;;;;;;11.85;10.23;;;;;;;;;;6303524;22;20325;-79
2022/11/04 01:21:16;;;;;;;10.50;8.82;;;;;;;;;;6276289;22;20101;-79
2022/11/04 01:23:43;;;;;;;9.70;7.97;;;;;;;;;;6250632;22;20608;-79
2022/11/04 01:26:12;;;;;;;11.55;10.40;;;;;;;;;;6276142;22;20419;-80
2022/11/04 01:28:38;;;;;;;11.93;8.55;;;;;;;;;;6303929;22;20015;-80
2022/11/04 01:31:05;;;;;;;8.15;7.35;;;;;;;;;;6303984;22;20011;-78
2022/11/04 01:33:31;;;;;;;8.88;7.75;;;;;;;;;;6276369;22;20014;-78
2022/11/04 01:36:00;;;;;;;7.95;7.10;;;;;;;;;;6305066;22;20015;-79
2022/11/04 01:38:27;;;;;;;9.90;7.90;;;;;;;;;;6305699;22;20090;-79
2022/11/04 01:40:53;;;;;;;9.68;8.75;;;;;;;;;;6250800;22;20367;-78
2022/11/04 01:43:20;;;;;;;7.95;7.25;;;;;;;;;;6276949;22;20011;-79
2022/11/04 01:45:49;;;;;;;7.50;6.80;;;;;;;;;;6276165;22;20026;-78
2022/11/04 01:48:21;;;;;;;7.57;6.80;;;;;;;;;;6303309;22;20066;-79
2022/11/04 01:50:47;;;;;;;9.90;7.97;;;;;;;;;;6302669;22;20017;-79
2022/11/04 01:53:26;;;;;;;10.50;9.32;;;;;;;;;;6302860;22;20082;-79
2022/11/04 01:55:56;;;;;;;8.40;7.60;;;;;;;;;;6275785;22;20016;-79
2022/11/04 01:58:22;;;;;;;10.52;7.70;;;;;;;;;;6302599;22;20072;-75
2022/11/04 02:00:48;;;;;;;10.40;9.43;;;;;;;;;;6250326;22;20103;-76
2022/11/04 02:03:17;;;;;;;8.45;7.75;;;;;;;;;;6302975;22;20034;-75
2022/11/04 02:05:43;;;;;;;12.60;10.68;;;;;;;;;;6302779;22;20046;-75
2022/11/04 02:08:09;;;;;;;11.35;9.90;;;;;;;;;;6276025;22;20452;-76
2022/11/04 02:10:36;;;;;;;8.73;7.82;;;;;;;;;;6275123;22;20043;-76
2022/11/04 02:13:02;;;;;;;10.55;9.52;;;;;;;;;;6305386;22;20015;-75
2022/11/04 02:15:51;;;;;;;9.02;8.13;;;;;;;;;;6281645;22;20011;-74
2022/11/04 02:18:21;;;;;;;9.90;8.93;;;;;;;;;;6310993;22;20007;-74
2022/11/04 02:20:59;;;;;;;7.95;7.18;;;;;;;;;;6321810;22;20011;-74
2022/11/04 02:23:29;;;;;;;9.88;8.05;;;;;;;;;;6321466;22;20398;-75
2022/11/04 02:26:07;;;;;;;9.32;8.43;;;;;;;;;;6260134;22;20112;-72
2022/11/04 02:28:36;;;;;;;10.32;9.43;;;;;;;;;;6287906;22;20015;-74
2022/11/04 02:31:05;;;;;;;10.15;9.30;;;;;;;;;;6306789;22;20011;-74
2022/11/04 02:33:33;;;;;;;7.97;7.22;;;;;;;;;;6302974;22;20082;-75
2022/11/04 02:36:02;;;;;;;8.90;8.15;;;;;;;;;;6275206;22;20095;-75
2022/11/04 02:38:32;;;;;;;11.43;8.03;;;;;;;;;;6301215;22;20007;-74
2022/11/04 02:41:00;;;;;;;7.95;7.25;;;;;;;;;;6273243;22;20788;-76
2022/11/04 02:43:33;;;;;;;8.45;7.70;;;;;;;;;;6248555;22;20019;-74
2022/11/04 02:46:08;;;;;;;9.10;8.30;;;;;;;;;;6248388;22;20063;-75
2022/11/04 02:48:38;;;;;;;9.25;8.18;;;;;;;;;;6274489;22;20086;-75
2022/11/04 02:51:12;;;;;;;9.13;8.32;;;;;;;;;;6248373;22;20011;-74
2022/11/04 02:53:39;;;;;;;7.93;7.22;;;;;;;;;;6249964;22;20098;-75
2022/11/04 02:56:05;;;;;;;8.60;7.28;;;;;;;;;;6275332;22;20015;-74
2022/11/04 02:58:34;;;;;;;8.98;7.82;;;;;;;;;;6275474;22;20007;-74
2022/11/04 03:01:00;;;;;;;9.13;8.23;;;;;;;;;;6275056;22;20101;-73
2022/11/04 03:03:39;;;;;;;7.93;7.13;;;;;;;;;;6275403;22;20360;-74
2022/11/04 03:06:05;;;;;;;9.48;8.57;;;;;;;;;;6274994;22;20102;-75
2022/11/04 03:08:33;;;;;;;8.23;7.15;;;;;;;;;;6276845;22;20047;-75
2022/11/04 03:11:08;;;;;;;10.35;8.48;;;;;;;;;;6252760;22;20015;-74
2022/11/04 03:13:39;;;;;;;9.02;8.23;;;;;;;;;;6280072;22;20030;-75
2022/11/04 03:16:08;;;;;;;10.57;8.30;;;;;;;;;;6302582;22;20011;-75
2022/11/04 03:18:52;;;;;;;9.93;8.95;;;;;;;;;;6249889;22;20015;-76
2022/11/04 03:21:18;;;;;;;10.43;8.25;;;;;;;;;;6275035;22;20014;-75
2022/11/04 03:23:44;;;;;;;9.20;8.20;;;;;;;;;;6302395;22;20064;-75
2022/11/04 03:26:21;;;;;;;9.35;8.40;;;;;;;;;;6274533;22;20069;-75
2022/11/04 03:28:53;;;;;;;11.27;7.53;;;;;;;;;;6275138;22;20477;-75
2022/11/04 03:31:22;;;;;;;8.75;7.30;;;;;;;;;;6301966;22;20098;-74
2022/11/04 03:33:49;;;;;;;7.75;6.80;;;;;;;;;;6275187;22;20101;-75
2022/11/04 03:36:15;;;;;;;10.00;9.00;;;;;;;;;;6301903;22;20038;-74
2022/11/04 03:38:41;;;;;;;9.50;8.57;;;;;;;;;;6274743;22;20007;-75
2022/11/04 03:41:17;;;;;;;8.05;7.22;;;;;;;;;;6273880;22;20021;-74
2022/11/04 03:43:43;;;;;;;9.43;8.23;;;;;;;;;;6223950;22;20557;-75
2022/11/04 03:46:09;;;;;;;8.05;7.35;;;;;;;;;;6301683;22;20019;-75
2022/11/04 03:48:35;;;;;;;9.48;8.20;;;;;;;;;;6251015;22;20011;-73
2022/11/04 03:51:01;;;;;;;9.50;8.70;;;;;;;;;;6274573;22;20011;-74
2022/11/04 03:53:27;;;;;;;10.30;8.40;;;;;;;;;;6302050;22;20034;-74
2022/11/04 03:55:55;;;;;;;3.13;2.92;;;;;;;;;;6301983;22;20007;-73
2022/11/04 03:58:31;;;;;;;10.45;9.38;;;;;;;;;;6301887;22;20019;-73
2022/11/04 04:01:02;;;;;;;8.65;6.97;;;;;;;;;;6301626;22;20082;-74
2022/11/04 04:03:32;;;;;;;6.15;5.55;;;;;;;;;;6274991;22;20328;-74
2022/11/04 04:06:00;;;;;;;7.05;6.10;;;;;;;;;;6250860;22;20045;-74
2022/11/04 04:08:32;;;;;;;9.35;8.13;;;;;;;;;;6277003;22;20098;-72
2022/11/04 04:11:16;;;;;;;13.40;8.70;;;;;;;;;;6304020;22;20090;-74
2022/11/04 04:13:49;;;;;;;9.32;8.10;;;;;;;;;;6303955;22;20019;-74
2022/11/04 04:16:41;;;;;;;9.23;8.43;;;;;;;;;;6276860;22;20015;-74
2022/11/04 04:19:09;;;;;;;10.63;8.38;;;;;;;;;;6300518;22;20037;-74
2022/11/04 04:21:36;;;;;;;13.88;10.25;;;;;;;;;;6276583;22;20015;-75
2022/11/04 04:29:32;;;;;;;12.63;8.65;;;;;;;;;;6303981;22;20448;-74
2022/11/04 04:31:59;;;;;;;9.10;8.05;;;;;;;;;;6250767;22;20046;-74
2022/11/04 04:34:28;;;;;;;12.32;8.07;;;;;;;;;;6251462;22;20328;-74
2022/11/04 04:37:03;;;;;;;8.50;7.50;;;;;;;;;;6303549;22;20011;-74
2022/11/04 04:45:22;;;;;;;10.45;9.20;;;;;;;;;;6303744;22;20039;-74
2022/11/04 04:47:48;;;;;;;9.98;9.07;;;;;;;;;;6303520;22;20039;-74
2022/11/04 04:50:15;;;;;;;8.95;8.13;;;;;;;;;;6275587;22;20090;-74
2022/11/04 04:52:42;;;;;;;8.50;7.68;;;;;;;;;;6303649;22;20012;-74
2022/11/04 04:55:08;;;;;;;11.13;9.65;;;;;;;;;;6250370;22;20022;-74
2022/11/04 04:57:33;;;;;;;9.73;8.82;;;;;;;;;;6276210;22;20092;-74
2022/11/04 05:00:00;;;;;;;9.18;8.35;;;;;;;;;;6303333;22;20023;-74
2022/11/04 05:02:25;;;;;;;9.60;8.70;;;;;;;;;;6303368;22;20016;-74
2022/11/04 05:04:51;;;;;;;13.10;10.63;;;;;;;;;;6303390;22;20475;-74
2022/11/04 05:07:17;;;;;;;11.50;8.98;;;;;;;;;;6303624;22;20098;-74
2022/11/04 05:09:43;;;;;;;8.35;7.47;;;;;;;;;;6276420;22;20019;-74
2022/11/04 05:12:09;;;;;;;11.13;8.18;;;;;;;;;;6303557;22;20035;-74
2022/11/04 05:14:35;;;;;;;7.88;7.18;;;;;;;;;;6303382;22;20050;-74
2022/11/04 05:17:01;;;;;;;10.55;9.52;;;;;;;;;;6250393;22;20011;-74
2022/11/04 05:19:27;;;;;;;12.65;11.45;;;;;;;;;;6303283;22;20050;-74
2022/11/04 05:21:53;;;;;;;14.25;12.73;;;;;;;;;;6275932;22;20019;-74
2022/11/04 05:24:19;;;;;;;11.10;10.10;;;;;;;;;;6304133;22;20057;-74
2022/11/04 05:26:45;;;;;;;15.73;13.13;;;;;;;;;;6305747;22;20363;-74
2022/11/04 05:29:11;;;;;;;11.95;10.18;;;;;;;;;;6305029;22;20082;-75
2022/11/04 05:31:37;;;;;;;12.13;9.85;;;;;;;;;;6303396;22;20033;-74
2022/11/04 05:34:04;;;;;;;13.88;12.25;;;;;;;;;;6276657;22;20057;-74
2022/11/04 05:36:32;;;;;;;15.85;12.45;;;;;;;;;;6275949;22;20011;-74
2022/11/04 05:38:58;;;;;;;11.95;10.55;;;;;;;;;;6276615;22;20015;-75
2022/11/04 05:41:26;;;;;;;19.50;16.35;;;;;;;;;;6275926;22;20362;-75
2022/11/04 05:43:52;;;;;;;10.88;9.68;;;;;;;;;;6276036;22;20365;-74
2022/11/04 05:46:18;;;;;;;11.27;9.73;;;;;;;;;;6275820;22;20023;-73
2022/11/04 05:48:44;;;;;;;17.38;11.65;;;;;;;;;;6275795;22;20015;-73
2022/11/04 05:51:17;;;;;;;9.43;8.55;;;;;;;;;;6302924;22;20011;-74
2022/11/04 05:53:43;;;;;;;15.60;12.07;;;;;;;;;;6303118;22;20372;-74
2022/11/04 05:56:09;;;;;;;15.75;13.38;;;;;;;;;;6302828;22;20018;-74
2022/11/04 05:58:35;;;;;;;15.98;14.38;;;;;;;;;;6275555;22;20011;-73
2022/11/04 06:01:20;;;;;;;15.88;12.23;;;;;;;;;;6303061;22;20104;-74
2022/11/04 06:03:46;;;;;;;12.23;10.40;;;;;;;;;;6303463;22;20034;-74
2022/11/04 06:06:12;;;;;;;15.38;12.50;;;;;;;;;;6302892;22;20027;-74
2022/11/04 06:08:38;;;;;;;10.43;9.40;;;;;;;;;;6251272;22;20534;-74
2022/11/04 06:11:04;;;;;;;15.95;12.38;;;;;;;;;;6311555;22;20125;-74
2022/11/04 06:13:30;;;;;;;17.52;11.88;;;;;;;;;;6312655;22;20014;-74
2022/11/04 06:15:56;;;;;;;12.32;11.15;;;;;;;;;;6312817;22;20011;-74
2022/11/04 06:18:22;;;;;;;10.70;9.63;;;;;;;;;;6285568;22;20018;-75
2022/11/04 06:20:48;;;;;;;12.15;10.98;;;;;;;;;;6312616;22;20011;-73
2022/11/04 06:23:13;;;;;;;15.40;10.80;;;;;;;;;;6256837;22;20034;-74
2022/11/04 06:25:39;;;;;;;11.07;8.13;;;;;;;;;;6305583;22;20029;-74
2022/11/04 06:28:06;;;;;;;12.15;9.95;;;;;;;;;;6303172;22;20042;-74
2022/11/04 06:30:32;;;;;;;11.88;9.85;;;;;;;;;;6303839;22;20321;-73
2022/11/04 06:32:58;;;;;;;10.55;8.00;;;;;;;;;;6252066;22;20145;-75
2022/11/04 06:35:24;;;;;;;8.20;7.30;;;;;;;;;;6250370;22;20146;-74
2022/11/04 06:37:50;;;;;;;11.70;8.48;;;;;;;;;;6275786;22;20042;-75
2022/11/04 06:40:16;;;;;;;14.60;12.05;;;;;;;;;;6300608;22;20103;-77
2022/11/04 06:42:43;;;;;;;7.75;7.05;;;;;;;;;;6251235;22;20026;-76
2022/11/04 06:45:10;;;;;;;10.32;6.65;;;;;;;;;;6301741;22;20019;-75
2022/11/04 06:47:36;;;;;;;7.28;5.65;;;;;;;;;;6301600;22;20468;-76
2022/11/04 06:50:02;;;;;;;6.50;6.00;;;;;;;;;;6274830;22;20037;-76
2022/11/04 06:52:28;;;;;;;6.75;5.95;;;;;;;;;;6248826;22;20019;-75
2022/11/04 06:54:54;;;;;;;7.00;5.68;;;;;;;;;;6274911;22;20007;-76
2022/11/04 06:57:20;;;;;;;6.68;6.05;;;;;;;;;;6301695;22;20019;-76
2022/11/04 06:59:46;;;;;;;7.78;5.28;;;;;;;;;;6301914;22;20567;-78
2022/11/04 07:02:12;;;;;;;9.65;7.80;;;;;;;;;;6301937;22;20015;-76
2022/11/04 07:04:38;;;;;;;8.90;6.82;;;;;;;;;;6275598;22;20015;-76
2022/11/04 07:07:04;;;;;;;10.10;5.80;;;;;;;;;;6303248;22;20491;-77
2022/11/04 07:09:30;;;;;;;16.05;12.00;;;;;;;;;;6250220;22;20041;-76
2022/11/04 07:11:56;;;;;;;8.40;7.47;;;;;;;;;;6277287;22;20094;-80
2022/11/04 07:14:22;;;;;;;5.68;5.07;;;;;;;;;;6277270;22;20046;-78
2022/11/04 07:16:50;;;;;;;9.35;5.93;;;;;;;;;;6304880;22;20003;-77
2022/11/04 07:19:16;;;;;;;4.65;4.25;;;;;;;;;;6307526;22;20019;-77
2022/11/04 07:21:42;;;;;;;6.47;5.63;;;;;;;;;;6285119;22;20046;-76
2022/11/04 07:24:08;;;;;;;13.75;8.13;;;;;;;;;;6318009;22;20026;-77
2022/11/04 07:26:33;;;;;;;6.13;5.63;;;;;;;;;;6266739;22;20106;-76
2022/11/04 07:28:59;;;;;;;7.85;7.15;;;;;;;;;;6291331;22;20027;-77
2022/11/04 07:31:25;;;;;;;6.40;5.82;;;;;;;;;;6287159;22;20121;-75
2022/11/04 07:33:52;;;;;;;6.53;5.93;;;;;;;;;;6256586;22;20008;-76
2022/11/04 07:36:18;;;;;;;20.00;11.80;;;;;;;;;;6279604;22;20015;-76
2022/11/04 07:38:44;;;;;;;8.38;5.22;;;;;;;;;;6308621;22;20023;-75
2022/11/04 07:41:10;;;;;;;7.68;6.95;;;;;;;;;;6278888;22;20062;-78
2022/11/04 07:43:36;;;;;;;9.10;6.65;;;;;;;;;;6258577;22;20011;-77
2022/11/04 07:46:03;;;;;;;6.78;4.78;;;;;;;;;;6313196;22;20479;-75
2022/11/04 07:48:29;;;;;;;11.80;7.93;;;;;;;;;;6304467;22;20011;-75
2022/11/04 07:50:58;;;;;;;10.45;6.75;;;;;;;;;;6278283;22;20015;-75
2022/11/04 07:53:25;;;;;;;7.43;6.65;;;;;;;;;;6308482;22;20014;-76
2022/11/04 07:55:51;;;;;;;7.53;6.55;;;;;;;;;;6287317;22;20023;-75
2022/11/04 07:58:18;;;;;;;7.32;6.40;;;;;;;;;;6308885;22;20648;-74
2022/11/04 08:00:46;;;;;;;7.53;5.72;;;;;;;;;;6309154;22;20487;-74
2022/11/04 08:03:12;;;;;;;5.60;5.05;;;;;;;;;;6306896;22;20003;-74
2022/11/04 08:05:37;;;;;;;5.47;4.97;;;;;;;;;;6313787;22;20098;-75
2022/11/04 08:08:03;;;;;;;6.13;4.80;;;;;;;;;;6313001;22;20010;-74
2022/11/04 08:10:29;;;;;;;4.05;3.75;;;;;;;;;;6283032;22;20007;-77
2022/11/04 08:12:55;;;;;;;5.38;4.85;;;;;;;;;;6286573;22;20011;-75
2022/11/04 08:15:21;;;;;;;5.07;4.57;;;;;;;;;;6262631;22;20021;-75
2022/11/04 08:17:47;;;;;;;4.93;4.50;;;;;;;;;;6285653;22;20037;-75
2022/11/04 08:20:13;;;;;;;5.72;5.20;;;;;;;;;;6282613;22;20098;-74
2022/11/04 08:22:39;;;;;;;11.27;5.45;;;;;;;;;;6282549;22;20012;-74
2022/11/04 08:25:05;;;;;;;6.95;6.45;;;;;;;;;;6282271;22;20019;-76
2022/11/04 08:27:31;;;;;;;10.27;7.80;;;;;;;;;;6282605;22;20105;-75
2022/11/04 08:29:57;;;;;;;7.00;5.90;;;;;;;;;;6287954;22;20012;-77
2022/11/04 08:32:23;;;;;;;7.68;6.47;;;;;;;;;;6311744;22;20667;-77
2022/11/04 08:34:49;;;;;;;5.97;5.38;;;;;;;;;;6311215;22;20031;-76
2022/11/04 08:37:15;;;;;;;9.30;5.32;;;;;;;;;;6315155;22;20015;-76
2022/11/04 08:39:41;;;;;;;6.70;6.07;;;;;;;;;;6282788;22;20138;-76
2022/11/04 08:42:07;;;;;;;6.63;5.95;;;;;;;;;;6281143;22;20397;-77
2022/11/04 08:44:34;;;;;;;6.18;5.68;;;;;;;;;;6309008;22;20038;-75
2022/11/04 08:47:00;;;;;;;9.05;6.72;;;;;;;;;;6279810;22;20019;-75
2022/11/04 08:49:27;;;;;;;10.68;5.93;;;;;;;;;;6307708;22;20011;-76
2022/11/04 08:51:58;;;;;;;7.82;5.78;;;;;;;;;;6279718;22;20015;-76
2022/11/04 08:54:24;;;;;;;8.13;6.80;;;;;;;;;;6263687;22;20023;-76
2022/11/04 08:56:50;;;;;;;7.53;6.72;;;;;;;;;;6323856;22;20015;-76
2022/11/04 08:59:16;;;;;;;10.63;7.10;;;;;;;;;;6291216;22;20019;-75
2022/11/04 09:01:42;;;;;;;6.82;6.22;;;;;;;;;;6289295;22;20069;-74
2022/11/04 09:04:12;;;;;;;14.73;7.20;;;;;;;;;;6290049;22;20007;-76
2022/11/04 09:06:39;;;;;;;8.70;6.80;;;;;;;;;;6290496;22;20027;-79
2022/11/04 09:09:05;;;;;;;16.40;8.45;;;;;;;;;;6294179;22;20011;-76
2022/11/04 09:11:31;;;;;;;7.97;7.18;;;;;;;;;;6283209;22;20015;-76
2022/11/04 09:13:59;;;;;;;11.07;7.85;;;;;;;;;;6288795;22;20030;-74
2022/11/04 09:16:26;;;;;;;9.25;6.55;;;;;;;;;;6290187;22;20019;-75
2022/11/04 09:18:52;;;;;;;7.75;6.75;;;;;;;;;;6283830;22;20098;-73
2022/11/04 09:21:18;;;;;;;8.13;7.32;;;;;;;;;;6309382;22;20010;-75
2022/11/04 09:23:45;;;;;;;10.13;8.40;;;;;;;;;;6286487;22;20007;-76
2022/11/04 09:26:12;;;;;;;12.02;7.82;;;;;;;;;;6314916;22;20023;-75
2022/11/04 09:28:39;;;;;;;12.13;8.45;;;;;;;;;;6314851;22;20007;-75
2022/11/04 09:31:06;;;;;;;7.93;7.13;;;;;;;;;;6313442;22;20015;-74
2022/11/04 09:33:32;;;;;;;9.95;8.35;;;;;;;;;;6288349;22;20011;-74
2022/11/04 09:35:58;;;;;;;14.95;9.38;;;;;;;;;;6314413;22;20011;-74
2022/11/04 09:38:23;;;;;;;19.13;8.80;;;;;;;;;;6280990;22;20007;-73
2022/11/04 09:40:50;;;;;;;9.20;8.18;;;;;;;;;;6309297;22;20014;-74
2022/11/04 09:43:18;;;;;;;11.40;9.38;;;;;;;;;;6311833;22;20007;-74
2022/11/04 09:45:44;;;;;;;23.00;11.57;;;;;;;;;;6313356;22;20071;-76
2022/11/04 09:48:12;;;;;;;15.00;8.90;;;;;;;;;;6261360;22;20019;-74
2022/11/04 09:50:48;;;;;;;8.93;8.10;;;;;;;;;;6288473;22;20007;-74
2022/11/04 09:53:21;;;;;;;11.60;9.65;;;;;;;;;;6282746;22;20018;-74
2022/11/04 09:55:55;;;;;;;12.80;9.25;;;;;;;;;;6255211;22;20018;-73
2022/11/04 09:58:20;;;;;;;10.38;9.23;;;;;;;;;;6283305;22;20035;-75
2022/11/04 10:00:57;;;;;;;12.27;8.60;;;;;;;;;;6311451;22;20118;-75
2022/11/04 10:03:28;;;;;;;10.02;8.55;;;;;;;;;;6287328;22;20034;-75
2022/11/04 10:06:13;;;;;;;14.20;10.73;;;;;;;;;;6316140;22;20022;-75
2022/11/04 10:08:39;;;;;;;26.20;13.68;;;;;;;;;;6315630;22;20014;-75
2022/11/04 10:11:20;;;;;;;15.75;10.40;;;;;;;;;;6313475;22;20015;-75
2022/11/04 10:13:49;;;;;;;18.45;10.27;;;;;;;;;;6315605;22;20014;-74
2022/11/04 10:16:34;;;;;;;21.25;11.15;;;;;;;;;;6284152;22;20015;-76
2022/11/04 10:19:12;;;;;;;16.83;11.40;;;;;;;;;;6312622;22;20042;-74
2022/11/04 10:21:42;;;;;;;17.20;10.35;;;;;;;;;;6316058;22;20086;-74
2022/11/04 10:24:08;;;;;;;18.83;12.23;;;;;;;;;;6310826;22;20402;-74
2022/11/04 10:26:44;;;;;;;17.23;7.80;;;;;;;;;;6309834;22;20102;-74
2022/11/04 10:29:15;;;;;;;14.73;10.13;;;;;;;;;;6230826;22;20011;-74
2022/11/04 10:31:41;;;;;;;10.98;8.85;;;;;;;;;;6310655;22;20094;-74
2022/11/04 10:34:10;;;;;;;10.23;8.55;;;;;;;;;;6284405;22;20043;-74
2022/11/04 10:36:35;;;;;;;13.27;10.10;;;;;;;;;;6282462;22;20007;-74
2022/11/04 10:39:02;;;;;;;13.70;10.38;;;;;;;;;;6312763;22;20011;-74
2022/11/04 10:41:36;;;;;;;11.10;8.13;;;;;;;;;;6256169;22;20019;-75
2022/11/04 10:44:03;;;;;;;21.85;13.95;;;;;;;;;;6313401;22;20011;-73
2022/11/04 10:46:36;;;;;;;21.10;13.73;;;;;;;;;;6312907;22;20074;-75
2022/11/04 10:49:05;;;;;;;30.30;13.18;;;;;;;;;;6311741;22;20065;-73
2022/11/04 10:51:31;;;;;;;16.52;11.32;;;;;;;;;;6311775;22;20721;-74
2022/11/04 10:53:57;;;;;;;17.67;11.63;;;;;;;;;;6285492;22;20015;-74
2022/11/04 10:56:35;;;;;;;20.10;12.63;;;;;;;;;;6283634;22;20011;-74
2022/11/04 10:59:14;;;;;;;25.73;14.57;;;;;;;;;;6252025;22;20479;-73
2022/11/04 11:12:49;;;;;;;21.20;14.05;;;;;;;;;;5155537;27;20205;-75
2022/11/04 11:15:28;;;;;;;26.50;17.10;;;;;;;;;;5112502;28;20031;-73
2022/11/04 11:18:19;;;;;;;23.33;13.43;;;;;;;;;;5116393;28;20096;-74
2022/11/04 11:21:02;;;;;;;25.55;13.90;;;;;;;;;;5101866;28;20048;-75
2022/11/04 11:23:36;;;;;;;19.77;13.80;;;;;;;;;;5110686;28;20039;-74
2022/11/04 11:26:02;;;;;;;19.83;10.80;;;;;;;;;;5110863;28;20053;-74
2022/11/04 11:28:28;;;;;;;14.35;10.80;;;;;;;;;;5093590;28;20427;-74
2022/11/04 11:30:56;;;;;;;25.92;13.18;;;;;;;;;;5110677;28;20067;-73
2022/11/04 11:33:26;;;;;;;19.95;11.27;;;;;;;;;;5091966;28;20063;-74
2022/11/04 11:35:52;;;;;;;16.63;11.75;;;;;;;;;;5110714;28;20577;-73
2022/11/04 11:38:21;;;;;;;15.80;10.68;;;;;;;;;;5109672;28;20031;-74
2022/11/04 11:40:49;;;;;;;22.58;13.50;;;;;;;;;;5127619;28;20596;-73
2022/11/04 11:43:25;;;;;;;24.25;13.80;;;;;;;;;;5107927;28;20080;-74
2022/11/04 11:45:51;;;;;;;21.25;12.73;;;;;;;;;;5125816;28;20126;-74
2022/11/04 11:48:26;;;;;;;26.75;16.63;;;;;;;;;;5125259;28;20110;-72
2022/11/04 11:50:55;;;;;;;24.63;14.95;;;;;;;;;;5108630;28;20524;-74
2022/11/04 11:53:23;;;;;;;30.98;18.33;;;;;;;;;;5110100;28;20046;-73
2022/11/04 11:55:51;;;;;;;26.63;16.60;;;;;;;;;;5133855;28;20095;-74
2022/11/04 11:58:36;;;;;;;25.83;14.77;;;;;;;;;;5112491;28;20039;-73
2022/11/04 12:01:09;;;;;;;27.48;13.55;;;;;;;;;;5127932;28;20047;-73
2022/11/04 12:03:41;;;;;;;30.20;15.15;;;;;;;;;;5110119;28;20027;-73
2022/11/04 12:06:13;;;;;;;;;;;;;;;;;;5112178;28;20095;-74
2022/11/04 12:08:39;;;;;;;28.42;15.27;;;;;;;;;;5109149;28;19916;-72
2022/11/04 12:11:15;;;;;;;22.17;11.93;;;;;;;;;;5085942;28;20061;-73
2022/11/04 12:13:43;;;;;;;28.92;14.82;;;;;;;;;;5072741;28;20032;-72
2022/11/04 12:16:09;;;;;;;22.70;12.32;;;;;;;;;;5090839;28;20040;-74
2022/11/04 12:18:54;;;;;;;38.55;16.10;;;;;;;;;;5090562;28;20028;-73
2022/11/04 12:21:25;;;;;;;25.45;14.30;;;;;;;;;;5072896;28;20047;-74
2022/11/04 12:23:56;;;;;;;30.83;15.63;;;;;;;;;;5091445;28;20562;-73
2022/11/04 12:26:28;;;;;;;28.20;15.57;;;;;;;;;;5090969;28;20432;-74
2022/11/04 12:29:13;;;;;;;27.55;16.67;;;;;;;;;;5090740;28;20422;-73
2022/11/04 12:31:42;;;;;;;26.02;15.07;;;;;;;;;;5069807;28;20032;-74
2022/11/04 12:34:21;;;;;;;23.40;14.43;;;;;;;;;;5092371;28;20036;-73
2022/11/04 12:37:05;;;;;;;22.00;14.20;;;;;;;;;;5085030;28;20051;-73
2022/11/04 12:39:34;;;;;;;22.55;12.70;;;;;;;;;;5072281;28;20039;-73
2022/11/04 12:42:07;;;;;;;23.73;13.07;;;;;;;;;;5090222;28;20040;-73
2022/11/04 12:44:37;;;;;;;36.20;18.90;;;;;;;;;;5089206;28;20040;-73
2022/11/04 12:47:06;;;;;;;25.35;13.55;;;;;;;;;;5088832;28;20055;-73
2022/11/04 12:49:42;;;;;;;23.63;13.60;;;;;;;;;;5090318;28;20040;-73
2022/11/04 12:52:12;;;;;;;22.35;12.85;;;;;;;;;;5071978;28;20051;-73
2022/11/04 12:54:38;;;;;;;19.87;13.83;;;;;;;;;;5089451;28;20035;-73
2022/11/04 12:57:07;;;;;;;23.08;12.20;;;;;;;;;;5090279;28;20039;-73
2022/11/04 12:59:38;;;;;;;21.02;12.55;;;;;;;;;;5072299;28;20109;-72
2022/11/04 13:02:23;;;;;;;28.40;12.40;;;;;;;;;;5071513;28;20051;-73
2022/11/04 13:04:51;;;;;;;26.52;13.82;;;;;;;;;;5072151;28;20094;-74
2022/11/04 13:07:37;;;;;;;17.35;11.82;;;;;;;;;;5054789;28;20039;-72
2022/11/04 13:10:05;;;;;;;27.35;14.10;;;;;;;;;;5090003;28;20410;-73
2022/11/04 13:12:38;;;;;;;19.92;13.38;;;;;;;;;;5071393;28;20052;-73
2022/11/04 13:15:15;;;;;;;25.75;13.98;;;;;;;;;;5072357;28;20553;-74
2022/11/04 13:17:41;;;;;;;24.52;14.45;;;;;;;;;;5072621;28;20406;-73
2022/11/04 13:20:12;;;;;;;22.30;12.77;;;;;;;;;;5072622;28;20043;-73
2022/11/04 13:22:38;;;;;;;26.88;12.40;;;;;;;;;;5071246;28;20046;-73
2022/11/04 13:25:19;;;;;;;22.92;13.40;;;;;;;;;;5088557;28;20495;-74
2022/11/04 13:27:45;;;;;;;21.20;13.18;;;;;;;;;;5071300;28;20507;-73
2022/11/04 13:30:21;;;;;;;22.10;13.18;;;;;;;;;;5088784;28;20040;-73
2022/11/04 13:33:02;;;;;;;16.70;10.00;;;;;;;;;;5089216;28;20123;-72
2022/11/04 13:35:30;;;;;;;;;;;;;;;;;;5089529;28;20032;-74
2022/11/04 13:37:58;;;;;;;15.90;11.25;;;;;;;;;;5089482;28;20291;-72
2022/11/04 13:40:25;;;;;;;25.67;15.43;;;;;;;;;;5070892;28;20048;-72
2022/11/04 13:46:07;;;;;;;20.85;12.32;;;;;;;;;;5043984;28;20127;-73
2022/11/04 13:48:33;;;;;;;22.73;14.02;;;;;;;;;;5088746;28;20188;-73
2022/11/04 13:51:09;;;;;;;26.40;13.77;;;;;;;;;;5089047;28;20024;-73
2022/11/04 13:53:41;;;;;;;21.95;11.95;;;;;;;;;;5088835;28;20062;-73
2022/11/04 13:56:07;;;;;;;18.95;12.60;;;;;;;;;;5088904;28;20177;-73
2022/11/04 13:58:34;;;;;;;16.60;11.20;;;;;;;;;;5054150;28;20114;-73
2022/11/04 14:01:13;;;;;;;23.63;12.73;;;;;;;;;;5088771;28;20040;-70
2022/11/04 14:03:49;;;;;;;19.52;12.77;;;;;;;;;;5070514;28;20032;-73
2022/11/04 14:06:15;;;;;;;22.98;14.50;;;;;;;;;;5088797;28;20040;-74
2022/11/04 14:09:01;;;;;;;21.50;15.18;;;;;;;;;;5087919;28;20121;-76
2022/11/04 14:11:27;;;;;;;25.40;13.77;;;;;;;;;;5088766;28;20650;-77
2022/11/04 14:14:00;;;;;;;22.38;13.45;;;;;;;;;;5089460;28;20068;-76
2022/11/04 14:16:26;;;;;;;20.88;12.95;;;;;;;;;;5088849;28;20281;-75
2022/11/04 14:18:52;;;;;;;19.30;11.95;;;;;;;;;;5088523;28;20051;-76
2022/11/04 14:21:19;;;;;;;20.38;12.07;;;;;;;;;;5088179;28;20048;-75
2022/11/04 14:23:45;;;;;;;19.25;12.73;;;;;;;;;;5089432;28;20035;-77
2022/11/04 14:26:16;;;;;;;21.25;12.10;;;;;;;;;;5089808;28;20032;-77
2022/11/04 14:28:42;;;;;;;21.55;14.13;;;;;;;;;;5089465;28;20039;-75
2022/11/04 14:31:14;;;;;;;19.45;12.35;;;;;;;;;;5054062;28;20031;-75
2022/11/04 14:33:55;;;;;;;16.95;10.75;;;;;;;;;;5054611;28;20081;-76
2022/11/04 14:36:24;;;;;;;21.52;12.35;;;;;;;;;;5088255;28;20463;-77
2022/11/04 14:38:53;;;;;;;28.83;12.20;;;;;;;;;;5088617;28;20130;-76
2022/11/04 14:41:25;;;;;;;18.38;12.23;;;;;;;;;;5088696;28;20051;-75
2022/11/04 14:43:51;;;;;;;20.08;12.15;;;;;;;;;;5088965;28;20503;-76
2022/11/04 14:46:18;;;;;;;19.35;12.23;;;;;;;;;;5087152;28;20042;-74
2022/11/04 14:48:50;;;;;;;17.30;11.65;;;;;;;;;;5088790;28;20135;-75
2022/11/04 14:51:26;;;;;;;21.67;11.63;;;;;;;;;;5070661;28;20583;-77
2022/11/04 14:53:53;;;;;;;21.65;11.48;;;;;;;;;;5071925;28;20036;-76
2022/11/04 14:56:20;;;;;;;20.30;13.50;;;;;;;;;;5089283;28;20036;-75
2022/11/04 14:58:52;;;;;;;15.30;10.10;;;;;;;;;;5089553;28;20032;-75
2022/11/04 15:01:18;;;;;;;19.10;11.32;;;;;;;;;;5069828;28;20082;-77
2022/11/04 15:03:44;;;;;;;18.42;11.73;;;;;;;;;;5070725;28;20059;-77
2022/11/04 15:06:10;;;;;;;16.65;11.30;;;;;;;;;;5070805;28;20043;-76
2022/11/04 15:08:41;;;;;;;24.73;13.60;;;;;;;;;;5088247;28;20028;-74
2022/11/04 15:11:07;;;;;;;19.63;12.73;;;;;;;;;;5034156;28;20090;-74
2022/11/04 15:13:34;;;;;;;31.65;15.68;;;;;;;;;;5069802;28;20036;-74
2022/11/04 15:16:00;;;;;;;23.77;14.68;;;;;;;;;;5069557;28;20036;-73
2022/11/04 15:18:27;;;;;;;16.75;11.00;;;;;;;;;;5087162;28;20124;-73
2022/11/04 15:20:54;;;;;;;22.40;10.77;;;;;;;;;;5077703;28;20047;-73
2022/11/04 15:23:34;;;;;;;25.23;13.23;;;;;;;;;;5087477;28;20028;-73